createdAt,value
2019-04-22T00:00:54.260Z,1012.93
2019-04-22T00:01:56.976Z,1012.91
2019-04-22T00:02:59.233Z,1012.93
2019-04-22T00:04:01.376Z,1012.94
2019-04-22T00:05:05.770Z,1012.93
2019-04-22T00:06:14.817Z,1012.93
2019-04-22T00:07:18.821Z,1012.90
2019-04-22T00:08:17.130Z,1012.92
2019-04-22T00:09:20.927Z,1012.91
2019-04-22T00:10:19.343Z,1012.89
2019-04-22T00:11:25.582Z,1012.86
2019-04-22T00:12:19.651Z,1012.86
2019-04-22T00:13:26.002Z,1012.84
2019-04-22T00:14:13.117Z,1012.81
2019-04-22T00:15:15.514Z,1012.83
2019-04-22T00:16:19.490Z,1012.81
2019-04-22T00:17:25.064Z,1012.80
2019-04-22T00:18:19.927Z,1012.77
2019-04-22T00:19:24.337Z,1012.80
2019-04-22T00:20:30.186Z,1012.76
2019-04-22T00:21:20.083Z,1012.77
2019-04-22T00:22:26.077Z,1012.76
2019-04-22T00:23:20.098Z,1012.76
2019-04-22T00:24:18.692Z,1012.77
2019-04-22T00:25:19.967Z,1012.76
2019-04-22T00:26:27.589Z,1012.78
2019-04-22T00:28:25.360Z,1012.74
2019-04-22T00:31:25.428Z,1012.68
2019-04-22T00:32:18.217Z,1012.74
2019-04-22T00:33:16.216Z,1012.68
2019-04-22T00:34:21.297Z,1012.68
2019-04-22T00:35:18.084Z,1012.69
2019-04-22T00:36:16.578Z,1012.64
2019-04-22T00:37:19.204Z,1012.67
2019-04-22T00:38:23.598Z,1012.67
2019-04-22T00:39:22.144Z,1012.65
2019-04-22T00:40:19.681Z,1012.69
2019-04-22T00:41:23.341Z,1012.66
2019-04-22T00:42:21.177Z,1012.67
2019-04-22T00:43:19.931Z,1012.66
2019-04-22T00:45:19.374Z,1012.64
2019-04-22T00:46:17.946Z,1012.64
2019-04-22T00:47:26.690Z,1012.67
2019-04-22T00:48:20.664Z,1012.69
2019-04-22T00:50:01.981Z,1012.66
2019-04-22T00:50:18.939Z,1012.67
2019-04-22T00:51:22.605Z,1012.68
2019-04-22T00:52:16.658Z,1012.64
2019-04-22T00:53:22.602Z,1012.69
2019-04-22T00:54:17.742Z,1012.66
2019-04-22T00:55:20.430Z,1012.66
2019-04-22T00:56:20.192Z,1012.70
2019-04-22T00:57:16.870Z,1012.64
2019-04-22T00:58:16.256Z,1012.68
2019-04-22T00:59:22.310Z,1012.67
2019-04-22T01:00:22.400Z,1012.64
2019-04-22T01:01:20.398Z,1012.62
2019-04-22T01:02:20.280Z,1012.65
2019-04-22T01:03:27.487Z,1012.60
2019-04-22T01:04:27.560Z,1012.63
2019-04-22T01:05:21.450Z,1012.64
2019-04-22T01:06:23.093Z,1012.57
2019-04-22T01:07:17.715Z,1012.60
2019-04-22T01:08:23.508Z,1012.55
2019-04-22T01:09:21.563Z,1012.56
2019-04-22T01:10:20.283Z,1012.54
2019-04-22T01:11:24.762Z,1012.58
2019-04-22T01:12:20.713Z,1012.58
2019-04-22T01:13:23.130Z,1012.54
2019-04-22T01:14:13.074Z,1012.61
2019-04-22T01:15:27.602Z,1012.64
2019-04-22T01:16:17.034Z,1012.62
2019-04-22T01:17:21.203Z,1012.65
2019-04-22T01:18:15.753Z,1012.59
2019-04-22T01:19:26.027Z,1012.57
2019-04-22T01:20:38.556Z,1012.59
2019-04-22T01:21:36.362Z,1012.53
2019-04-22T01:22:17.566Z,1012.50
2019-04-22T01:23:19.549Z,1012.56
2019-04-22T01:24:17.094Z,1012.54
2019-04-22T01:25:15.943Z,1012.50
2019-04-22T01:26:08.058Z,1012.55
2019-04-22T01:27:08.023Z,1012.53
2019-04-22T01:28:12.605Z,1012.49
2019-04-22T01:29:05.000Z,1012.53
2019-04-22T01:30:08.458Z,1012.51
2019-04-22T01:31:01.948Z,1012.48
2019-04-22T01:31:54.602Z,1012.52
2019-04-22T01:33:02.753Z,1012.50
2019-04-22T01:34:08.378Z,1012.47
2019-04-22T01:35:09.165Z,1012.44
2019-04-22T01:36:15.288Z,1012.45
2019-04-22T01:37:09.054Z,1012.52
2019-04-22T01:38:11.771Z,1012.49
2019-04-22T01:39:18.266Z,1012.47
2019-04-22T01:40:17.738Z,1012.53
2019-04-22T01:41:23.050Z,1012.49
2019-04-22T01:42:18.701Z,1012.49
2019-04-22T01:43:25.105Z,1012.49
2019-04-22T01:44:25.730Z,1012.44
2019-04-22T01:45:19.372Z,1012.45
2019-04-22T01:46:27.284Z,1012.45
2019-04-22T01:47:18.642Z,1012.42
2019-04-22T01:48:19.612Z,1012.36
2019-04-22T01:49:21.484Z,1012.40
2019-04-22T01:50:19.958Z,1012.39
2019-04-22T01:51:22.348Z,1012.37
2019-04-22T01:52:16.559Z,1012.37
2019-04-22T01:53:19.376Z,1012.34
2019-04-22T01:54:23.407Z,1012.31
2019-04-22T01:55:25.137Z,1012.31
2019-04-22T01:56:24.268Z,1012.31
2019-04-22T01:57:20.806Z,1012.32
2019-04-22T01:58:10.992Z,1012.26
2019-04-22T01:59:11.010Z,1012.24
2019-04-22T02:00:13.882Z,1012.26
2019-04-22T02:01:22.147Z,1012.22
2019-04-22T02:02:18.987Z,1012.20
2019-04-22T02:03:17.210Z,1012.24
2019-04-22T02:04:26.886Z,1012.26
2019-04-22T02:05:21.659Z,1012.23
2019-04-22T02:06:28.809Z,1012.22
2019-04-22T02:07:19.375Z,1012.23
2019-04-22T02:08:25.285Z,1012.21
2019-04-22T02:09:24.037Z,1012.29
2019-04-22T02:10:26.887Z,1012.26
2019-04-22T02:11:29.287Z,1012.26
2019-04-22T02:12:22.646Z,1012.29
2019-04-22T02:13:23.461Z,1012.24
2019-04-22T02:14:19.836Z,1012.27
2019-04-22T02:15:16.965Z,1012.26
2019-04-22T02:16:23.152Z,1012.20
2019-04-22T02:18:23.405Z,1012.21
2019-04-22T02:19:22.735Z,1012.20
2019-04-22T02:20:23.192Z,1012.21
2019-04-22T02:21:13.811Z,1012.21
2019-04-22T02:22:38.075Z,1012.19
2019-04-22T02:24:18.068Z,1012.20
2019-04-22T02:25:25.756Z,1012.20
2019-04-22T02:26:38.585Z,1012.14
2019-04-22T02:27:29.333Z,1012.12
2019-04-22T02:28:25.633Z,1012.17
2019-04-22T02:29:23.251Z,1012.08
2019-04-22T02:30:30.463Z,1012.12
2019-04-22T02:32:39.269Z,1012.09
2019-04-22T02:33:52.628Z,1012.09
2019-04-22T02:34:21.565Z,1012.08
2019-04-22T02:38:34.846Z,1012.04
2019-04-22T02:39:20.237Z,1012.03
2019-04-22T02:40:35.401Z,1012.01
2019-04-22T02:41:31.116Z,1012.02
2019-04-22T02:42:19.449Z,1012.04
2019-04-22T02:43:34.198Z,1012.07
2019-04-22T02:44:25.319Z,1012.05
2019-04-22T02:45:26.392Z,1012.08
2019-04-22T02:47:20.582Z,1012.06
2019-04-22T02:48:34.103Z,1012.09
2019-04-22T02:49:26.788Z,1012.09
2019-04-22T02:50:19.724Z,1012.05
2019-04-22T02:52:26.054Z,1012.05
2019-04-22T02:53:44.498Z,1012.00
2019-04-22T02:55:24.641Z,1012.02
2019-04-22T02:57:32.035Z,1012.04
2019-04-22T02:58:16.871Z,1012.02
2019-04-22T02:59:26.184Z,1012.01
2019-04-22T03:02:28.728Z,1011.99
2019-04-22T03:03:45.858Z,1011.94
2019-04-22T03:05:27.949Z,1011.91
2019-04-22T03:07:25.496Z,1011.90
2019-04-22T03:08:30.361Z,1011.93
2019-04-22T03:09:25.496Z,1011.91
2019-04-22T03:10:29.439Z,1011.92
2019-04-22T03:11:24.758Z,1011.95
2019-04-22T03:13:34.177Z,1011.93
2019-04-22T03:15:20.099Z,1011.89
2019-04-22T03:17:20.652Z,1011.91
2019-04-22T03:18:29.155Z,1011.90
2019-04-22T03:19:42.775Z,1011.95
2019-04-22T03:20:17.816Z,1011.91
2019-04-22T03:21:24.059Z,1011.94
2019-04-22T03:22:26.482Z,1011.92
2019-04-22T03:26:27.270Z,1011.87
2019-04-22T03:27:25.489Z,1011.88
2019-04-22T03:28:33.059Z,1011.86
2019-04-22T03:29:21.374Z,1011.89
2019-04-22T03:31:44.838Z,1011.87
2019-04-22T03:32:52.455Z,1011.93
2019-04-22T03:33:33.994Z,1011.89
2019-04-22T03:35:15.828Z,1011.89
2019-04-22T03:35:36.822Z,1011.86
2019-04-22T03:37:00.414Z,1011.88
2019-04-22T03:37:32.253Z,1011.86
2019-04-22T03:38:28.567Z,1011.89
2019-04-22T03:39:38.103Z,1011.90
2019-04-22T03:40:37.318Z,1011.91
2019-04-22T03:41:45.060Z,1011.85
2019-04-22T03:42:45.671Z,1011.87
2019-04-22T03:43:23.890Z,1011.89
2019-04-22T03:44:32.040Z,1011.89
2019-04-22T03:46:30.341Z,1011.95
2019-04-22T03:47:31.917Z,1011.93
2019-04-22T03:48:15.900Z,1011.95
2019-04-22T03:49:37.166Z,1011.91
2019-04-22T03:53:24.795Z,1011.82
2019-04-22T03:55:26.091Z,1011.83
2019-04-22T03:56:56.866Z,1011.82
2019-04-22T03:58:21.453Z,1011.82
2019-04-22T04:01:36.928Z,1011.83
2019-04-22T04:02:39.426Z,1011.81
2019-04-22T04:03:22.773Z,1011.80
2019-04-22T04:04:28.150Z,1011.77
2019-04-22T04:05:34.003Z,1011.77
2019-04-22T04:06:32.376Z,1011.80
2019-04-22T04:08:30.070Z,1011.78
2019-04-22T04:09:24.166Z,1011.77
2019-04-22T04:10:37.599Z,1011.82
2019-04-22T04:11:39.011Z,1011.77
2019-04-22T04:12:23.707Z,1011.75
2019-04-22T04:14:26.939Z,1011.76
2019-04-22T04:15:28.550Z,1011.80
2019-04-22T04:16:35.250Z,1011.81
2019-04-22T04:18:19.214Z,1011.81
2019-04-22T04:22:43.043Z,1011.75
2019-04-22T04:23:30.949Z,1011.75
2019-04-22T04:25:38.118Z,1011.77
2019-04-22T04:26:42.425Z,1011.77
2019-04-22T04:28:47.727Z,1011.81
2019-04-22T04:29:41.767Z,1011.83
2019-04-22T04:32:36.445Z,1011.83
2019-04-22T04:33:33.064Z,1011.82
2019-04-22T04:34:47.843Z,1011.82
2019-04-22T04:35:32.392Z,1011.86
2019-04-22T04:36:28.326Z,1011.81
2019-04-22T04:38:21.175Z,1011.77
2019-04-22T04:39:26.782Z,1011.80
2019-04-22T04:40:50.889Z,1011.81
2019-04-22T04:41:33.890Z,1011.85
2019-04-22T04:42:32.525Z,1011.82
2019-04-22T04:43:26.110Z,1011.84
2019-04-22T04:46:45.306Z,1011.80
2019-04-22T04:47:37.211Z,1011.86
2019-04-22T04:49:24.283Z,1011.76
2019-04-22T04:50:22.695Z,1011.79
2019-04-22T04:51:32.971Z,1011.76
2019-04-22T04:53:20.541Z,1011.78
2019-04-22T04:56:33.931Z,1011.82
2019-04-22T05:00:40.246Z,1011.82
2019-04-22T05:01:31.264Z,1011.84
2019-04-22T05:02:35.585Z,1011.87
2019-04-22T05:03:32.831Z,1011.85
2019-04-22T05:04:37.271Z,1011.89
2019-04-22T05:06:39.282Z,1011.92
2019-04-22T05:07:34.285Z,1011.91
2019-04-22T05:08:39.047Z,1011.89
2019-04-22T05:09:21.470Z,1011.84
2019-04-22T05:10:35.081Z,1011.85
2019-04-22T05:11:32.241Z,1011.84
2019-04-22T05:13:33.559Z,1011.86
2019-04-22T05:14:24.867Z,1011.85
2019-04-22T05:18:20.814Z,1011.91
2019-04-22T05:19:20.729Z,1011.88
2019-04-22T05:20:42.642Z,1011.88
2019-04-22T05:21:17.814Z,1011.94
2019-04-22T05:22:21.069Z,1011.91
2019-04-22T05:23:24.954Z,1011.89
2019-04-22T05:24:25.992Z,1011.89
2019-04-22T05:25:19.579Z,1011.95
2019-04-22T05:26:20.508Z,1011.93
2019-04-22T05:27:32.656Z,1011.97
2019-04-22T05:28:16.498Z,1012.00
2019-04-22T05:29:23.483Z,1011.94
2019-04-22T05:31:28.709Z,1012.00
2019-04-22T05:32:17.465Z,1012.03
2019-04-22T05:33:15.360Z,1011.97
2019-04-22T05:34:14.422Z,1011.94
2019-04-22T05:35:20.612Z,1011.94
2019-04-22T05:36:20.731Z,1011.96
2019-04-22T05:37:22.841Z,1012.09
2019-04-22T05:38:17.180Z,1012.13
2019-04-22T05:39:15.731Z,1012.16
2019-04-22T05:40:22.082Z,1012.14
2019-04-22T05:41:16.291Z,1012.14
2019-04-22T05:42:16.497Z,1012.16
2019-04-22T05:43:16.205Z,1012.15
2019-04-22T05:44:14.681Z,1012.02
2019-04-22T05:45:14.835Z,1012.02
2019-04-22T05:46:15.342Z,1011.98
2019-04-22T05:47:15.197Z,1012.01
2019-04-22T05:48:18.756Z,1011.99
2019-04-22T05:50:13.027Z,1012.06
2019-04-22T05:51:23.920Z,1012.05
2019-04-22T05:52:17.284Z,1012.03
2019-04-22T05:53:14.990Z,1012.06
2019-04-22T05:54:27.330Z,1012.04
2019-04-22T05:55:16.428Z,1012.04
2019-04-22T05:57:18.064Z,1012.00
2019-04-22T05:58:15.216Z,1011.99
2019-04-22T05:59:22.822Z,1011.97
2019-04-22T06:00:23.090Z,1012.03
2019-04-22T06:02:31.004Z,1011.97
2019-04-22T06:03:16.519Z,1012.04
2019-04-22T06:04:17.065Z,1012.04
2019-04-22T06:05:17.337Z,1012.06
2019-04-22T06:07:13.612Z,1012.20
2019-04-22T06:08:16.937Z,1012.25
2019-04-22T06:09:14.748Z,1012.33
2019-04-22T06:10:21.098Z,1012.29
2019-04-22T06:11:24.107Z,1012.36
2019-04-22T06:12:12.196Z,1012.37
2019-04-22T06:13:09.968Z,1012.41
2019-04-22T06:14:15.271Z,1012.39
2019-04-22T06:15:16.648Z,1012.43
2019-04-22T06:16:20.589Z,1012.45
2019-04-22T06:17:20.489Z,1012.43
2019-04-22T06:19:23.163Z,1012.47
2019-04-22T06:20:15.302Z,1012.53
2019-04-22T06:21:32.663Z,1012.43
2019-04-22T06:22:22.607Z,1012.45
2019-04-22T06:23:19.056Z,1012.42
2019-04-22T06:24:27.448Z,1012.42
2019-04-22T06:25:20.101Z,1012.40
2019-04-22T06:26:24.001Z,1012.44
2019-04-22T06:27:21.190Z,1012.45
2019-04-22T06:28:26.605Z,1012.47
2019-04-22T06:29:14.986Z,1012.45
2019-04-22T06:30:17.235Z,1012.41
2019-04-22T06:31:16.122Z,1012.41
2019-04-22T06:32:26.364Z,1012.40
2019-04-22T06:34:18.670Z,1012.42
2019-04-22T06:35:23.395Z,1012.42
2019-04-22T06:36:21.004Z,1012.35
2019-04-22T06:37:17.464Z,1012.41
2019-04-22T06:39:24.218Z,1012.23
2019-04-22T06:40:20.440Z,1012.13
2019-04-22T06:41:28.637Z,1012.13
2019-04-22T06:42:19.253Z,1012.14
2019-04-22T06:43:15.854Z,1012.07
2019-04-22T06:44:29.866Z,1012.03
2019-04-22T06:45:18.999Z,1012.06
2019-04-22T06:46:14.410Z,1011.98
2019-04-22T06:47:38.304Z,1012.04
2019-04-22T06:48:19.567Z,1011.99
2019-04-22T06:49:18.820Z,1012.16
2019-04-22T06:50:19.968Z,1012.09
2019-04-22T06:51:18.038Z,1012.14
2019-04-22T06:53:22.223Z,1012.22
2019-04-22T06:54:14.757Z,1012.13
2019-04-22T06:55:16.657Z,1012.12
2019-04-22T06:56:17.287Z,1012.13
2019-04-22T06:57:11.541Z,1012.11
2019-04-22T06:58:15.236Z,1012.07
2019-04-22T06:59:11.884Z,1012.18
2019-04-22T07:00:22.865Z,1012.15
2019-04-22T07:01:21.076Z,1012.15
2019-04-22T07:02:16.633Z,1012.21
2019-04-22T07:03:37.462Z,1012.27
2019-04-22T07:04:14.475Z,1012.37
2019-04-22T07:05:17.999Z,1012.43
2019-04-22T07:06:19.653Z,1012.44
2019-04-22T07:07:12.254Z,1012.44
2019-04-22T07:09:01.301Z,1012.52
2019-04-22T07:11:06.234Z,1012.48
2019-04-22T07:12:18.652Z,1012.55
2019-04-22T07:13:21.105Z,1012.53
2019-04-22T07:14:09.370Z,1012.48
2019-04-22T07:15:31.705Z,1012.50
2019-04-22T07:16:18.762Z,1012.59
2019-04-22T07:17:14.944Z,1012.53
2019-04-22T07:18:19.843Z,1012.53
2019-04-22T07:19:13.549Z,1012.54
2019-04-22T07:20:22.136Z,1012.55
2019-04-22T07:21:18.119Z,1012.50
2019-04-22T07:22:16.264Z,1012.58
2019-04-22T07:23:24.827Z,1012.60
2019-04-22T07:25:29.153Z,1012.49
2019-04-22T07:26:16.228Z,1012.34
2019-04-22T07:27:18.883Z,1012.14
2019-04-22T07:28:15.616Z,1012.16
2019-04-22T07:29:16.447Z,1012.08
2019-04-22T07:30:25.334Z,1012.07
2019-04-22T07:31:32.510Z,1012.06
2019-04-22T07:32:17.212Z,1012.17
2019-04-22T07:33:32.393Z,1012.12
2019-04-22T07:34:22.301Z,1012.14
2019-04-22T07:35:19.407Z,1012.12
2019-04-22T07:38:17.516Z,1012.16
2019-04-22T07:39:15.601Z,1012.20
2019-04-22T07:40:17.265Z,1012.21
2019-04-22T07:41:16.964Z,1012.18
2019-04-22T07:42:20.357Z,1012.08
2019-04-22T07:43:20.016Z,1012.13
2019-04-22T07:44:21.890Z,1012.13
2019-04-22T07:45:22.558Z,1012.18
2019-04-22T07:46:13.427Z,1012.22
2019-04-22T07:47:18.592Z,1012.19
2019-04-22T07:48:26.182Z,1012.17
2019-04-22T07:49:18.341Z,1012.12
2019-04-22T07:50:25.342Z,1012.16
2019-04-22T07:51:13.460Z,1012.06
2019-04-22T07:52:15.890Z,1012.06
2019-04-22T07:53:10.492Z,1012.11
2019-04-22T07:54:13.348Z,1012.05
2019-04-22T07:55:10.352Z,1012.05
2019-04-22T07:56:12.391Z,1012.09
2019-04-22T07:57:21.295Z,1012.07
2019-04-22T07:58:21.132Z,1012.02
2019-04-22T07:59:15.617Z,1012.02
2019-04-22T08:00:16.204Z,1012.09
2019-04-22T08:01:18.965Z,1012.12
2019-04-22T08:02:14.583Z,1012.00
2019-04-22T08:03:18.441Z,1011.97
2019-04-22T08:04:22.980Z,1011.98
2019-04-22T08:05:16.886Z,1012.06
2019-04-22T08:06:20.302Z,1011.98
2019-04-22T08:07:18.146Z,1011.99
2019-04-22T08:08:24.969Z,1011.95
2019-04-22T08:09:20.283Z,1011.96
2019-04-22T08:10:23.600Z,1011.92
2019-04-22T08:11:33.342Z,1011.97
2019-04-22T08:12:16.682Z,1011.96
2019-04-22T08:13:19.750Z,1012.01
2019-04-22T08:14:17.194Z,1012.18
2019-04-22T08:15:14.406Z,1012.26
2019-04-22T08:16:17.013Z,1012.32
2019-04-22T08:17:43.090Z,1012.39
2019-04-22T08:18:24.881Z,1012.37
2019-04-22T08:19:21.165Z,1012.34
2019-04-22T08:20:18.920Z,1012.44
2019-04-22T08:21:12.366Z,1012.44
2019-04-22T08:22:14.243Z,1012.51
2019-04-22T08:23:16.641Z,1012.52
2019-04-22T08:24:18.083Z,1012.32
2019-04-22T08:25:11.733Z,1012.20
2019-04-22T08:26:15.813Z,1012.19
2019-04-22T08:27:15.260Z,1012.10
2019-04-22T08:28:17.386Z,1012.13
2019-04-22T08:29:35.043Z,1012.05
2019-04-22T08:31:17.301Z,1012.05
2019-04-22T08:32:13.949Z,1012.07
2019-04-22T08:33:16.061Z,1012.06
2019-04-22T08:34:14.295Z,1012.05
2019-04-22T08:35:20.205Z,1012.03
2019-04-22T08:38:11.435Z,1012.01
2019-04-22T08:39:14.089Z,1012.06
2019-04-22T08:40:17.010Z,1012.01
2019-04-22T08:41:23.058Z,1012.07
2019-04-22T08:42:23.430Z,1012.12
2019-04-22T08:43:20.212Z,1012.08
2019-04-22T08:46:17.039Z,1012.12
2019-04-22T08:47:19.095Z,1012.05
2019-04-22T08:48:15.068Z,1012.05
2019-04-22T08:49:10.506Z,1012.05
2019-04-22T08:50:16.484Z,1012.00
2019-04-22T08:51:19.237Z,1012.03
2019-04-22T08:52:16.548Z,1012.00
2019-04-22T08:53:16.121Z,1011.99
2019-04-22T08:54:11.700Z,1011.97
2019-04-22T08:55:22.599Z,1011.94
2019-04-22T08:56:27.506Z,1012.07
2019-04-22T08:57:18.346Z,1011.99
2019-04-22T08:58:21.411Z,1012.00
2019-04-22T09:00:15.490Z,1012.05
2019-04-22T09:01:21.208Z,1011.98
2019-04-22T09:02:19.954Z,1011.94
2019-04-22T09:03:11.105Z,1012.00
2019-04-22T09:04:11.737Z,1011.98
2019-04-22T09:05:22.815Z,1011.94
2019-04-22T09:06:19.939Z,1011.98
2019-04-22T09:07:20.682Z,1011.93
2019-04-22T09:08:19.119Z,1011.94
2019-04-22T09:09:11.640Z,1012.01
2019-04-22T09:10:17.149Z,1011.95
2019-04-22T09:11:14.841Z,1012.00
2019-04-22T09:12:15.819Z,1012.05
2019-04-22T09:13:10.191Z,1011.90
2019-04-22T09:14:15.950Z,1012.04
2019-04-22T09:15:16.239Z,1011.88
2019-04-22T09:16:21.882Z,1011.93
2019-04-22T09:17:17.956Z,1012.03
2019-04-22T09:18:19.399Z,1012.04
2019-04-22T09:19:12.524Z,1011.96
2019-04-22T09:20:12.776Z,1011.97
2019-04-22T09:21:18.686Z,1011.91
2019-04-22T09:22:16.860Z,1011.89
2019-04-22T09:23:17.638Z,1011.93
2019-04-22T09:25:08.134Z,1011.88
2019-04-22T09:26:15.387Z,1011.87
2019-04-22T09:27:22.514Z,1011.86
2019-04-22T09:28:15.160Z,1011.80
2019-04-22T09:29:20.932Z,1011.88
2019-04-22T09:30:16.913Z,1011.86
2019-04-22T09:31:11.399Z,1011.84
2019-04-22T09:32:21.623Z,1011.83
2019-04-22T09:33:14.196Z,1011.73
2019-04-22T09:34:18.583Z,1011.83
2019-04-22T09:35:10.148Z,1011.78
2019-04-22T09:37:20.646Z,1011.80
2019-04-22T09:38:25.760Z,1011.77
2019-04-22T09:39:19.292Z,1011.77
2019-04-22T09:40:18.718Z,1011.79
2019-04-22T09:41:14.227Z,1011.66
2019-04-22T09:42:10.812Z,1011.79
2019-04-22T09:43:18.419Z,1011.93
2019-04-22T09:44:08.064Z,1011.74
2019-04-22T09:45:12.451Z,1011.72
2019-04-22T09:46:15.117Z,1011.70
2019-04-22T09:47:11.603Z,1011.74
2019-04-22T09:48:18.422Z,1011.62
2019-04-22T09:49:19.383Z,1011.79
2019-04-22T09:50:16.471Z,1011.69
2019-04-22T09:51:12.306Z,1011.68
2019-04-22T09:52:28.046Z,1011.67
2019-04-22T09:53:17.569Z,1011.67
2019-04-22T09:54:21.751Z,1011.62
2019-04-22T09:55:12.446Z,1011.64
2019-04-22T09:56:17.631Z,1011.62
2019-04-22T09:57:16.951Z,1011.62
2019-04-22T09:58:09.523Z,1011.58
2019-04-22T09:59:13.713Z,1011.64
2019-04-22T10:00:28.642Z,1011.64
2019-04-22T10:01:32.438Z,1011.68
2019-04-22T10:03:13.650Z,1011.59
2019-04-22T10:04:27.283Z,1011.55
2019-04-22T10:05:11.470Z,1011.58
2019-04-22T10:06:22.815Z,1011.58
2019-04-22T10:07:17.569Z,1011.68
2019-04-22T10:08:22.272Z,1011.66
2019-04-22T10:09:42.889Z,1011.67
2019-04-22T10:10:17.140Z,1011.59
2019-04-22T10:11:04.653Z,1011.53
2019-04-22T10:13:18.754Z,1011.52
2019-04-22T10:14:12.336Z,1011.36
2019-04-22T10:15:09.709Z,1011.46
2019-04-22T10:16:20.667Z,1011.38
2019-04-22T10:17:15.624Z,1011.45
2019-04-22T10:18:20.349Z,1011.45
2019-04-22T10:19:14.529Z,1011.36
2019-04-22T10:20:13.325Z,1011.41
2019-04-22T10:21:16.290Z,1011.39
2019-04-22T10:22:25.348Z,1011.43
2019-04-22T10:23:17.724Z,1011.37
2019-04-22T10:24:16.639Z,1011.34
2019-04-22T10:25:14.578Z,1011.35
2019-04-22T10:26:19.480Z,1011.35
2019-04-22T10:27:07.226Z,1011.28
2019-04-22T10:28:15.158Z,1011.28
2019-04-22T10:29:16.997Z,1011.25
2019-04-22T10:30:17.312Z,1011.30
2019-04-22T10:31:19.297Z,1011.21
2019-04-22T10:32:11.360Z,1011.12
2019-04-22T10:33:11.669Z,1011.09
2019-04-22T10:33:59.967Z,1011.11
2019-04-22T10:34:56.607Z,1011.12
2019-04-22T10:35:47.687Z,1011.11
2019-04-22T10:36:51.024Z,1011.12
2019-04-22T10:37:48.134Z,1011.09
2019-04-22T10:38:46.625Z,1011.21
2019-04-22T10:39:56.123Z,1011.10
2019-04-22T10:40:47.221Z,1011.14
2019-04-22T10:41:46.479Z,1011.22
2019-04-22T10:42:47.308Z,1011.23
2019-04-22T10:43:47.442Z,1011.34
2019-04-22T10:44:46.842Z,1011.36
2019-04-22T10:45:46.243Z,1011.42
2019-04-22T10:46:46.378Z,1011.47
2019-04-22T10:47:46.139Z,1011.41
2019-04-22T10:48:46.248Z,1011.53
2019-04-22T10:49:46.644Z,1011.43
2019-04-22T10:50:46.578Z,1011.49
2019-04-22T10:51:46.560Z,1011.43
2019-04-22T10:52:47.606Z,1011.38
2019-04-22T10:53:47.158Z,1011.33
2019-04-22T10:54:47.291Z,1011.39
2019-04-22T10:55:47.739Z,1011.37
2019-04-22T10:56:46.054Z,1011.42
2019-04-22T10:57:46.395Z,1011.40
2019-04-22T10:58:46.677Z,1011.41
2019-04-22T10:59:46.898Z,1011.43
2019-04-22T11:00:47.223Z,1011.47
2019-04-22T11:01:46.513Z,1011.35
2019-04-22T11:02:45.992Z,1011.33
2019-04-22T11:03:45.973Z,1011.39
2019-04-22T11:04:46.109Z,1011.25
2019-04-22T11:05:46.321Z,1011.28
2019-04-22T11:06:53.074Z,1011.27
2019-04-22T11:07:53.762Z,1011.25
2019-04-22T11:08:52.808Z,1011.28
2019-04-22T11:09:54.897Z,1011.31
2019-04-22T11:11:00.353Z,1011.23
2019-04-22T11:11:54.223Z,1011.29
2019-04-22T11:12:47.205Z,1011.26
2019-04-22T11:13:47.482Z,1011.29
2019-04-22T11:14:45.880Z,1011.28
2019-04-22T11:15:46.806Z,1011.30
2019-04-22T11:16:45.840Z,1011.31
2019-04-22T11:17:47.140Z,1011.25
2019-04-22T11:18:45.842Z,1011.19
2019-04-22T11:19:45.867Z,1011.18
2019-04-22T11:20:47.256Z,1011.14
2019-04-22T11:21:57.678Z,1011.14
2019-04-22T11:22:46.805Z,1011.13
2019-04-22T11:23:46.999Z,1011.10
2019-04-22T11:24:46.650Z,1011.08
2019-04-22T11:25:46.149Z,1011.02
2019-04-22T11:26:47.018Z,1011.02
2019-04-22T11:27:47.098Z,1011.02
2019-04-22T11:28:45.722Z,1010.95
2019-04-22T11:29:45.799Z,1010.95
2019-04-22T11:30:45.720Z,1010.93
2019-04-22T11:31:46.470Z,1010.97
2019-04-22T11:32:46.556Z,1010.93
2019-04-22T11:33:45.687Z,1010.90
2019-04-22T11:34:46.998Z,1010.93
2019-04-22T11:35:45.974Z,1010.91
2019-04-22T11:36:47.054Z,1011.19
2019-04-22T11:37:46.593Z,1010.82
2019-04-22T11:38:52.379Z,1010.85
2019-04-22T11:39:48.138Z,1010.85
2019-04-22T11:40:51.730Z,1010.86
2019-04-22T11:41:46.588Z,1010.75
2019-04-22T11:42:46.057Z,1010.93
2019-04-22T11:43:47.232Z,1010.89
2019-04-22T11:44:45.574Z,1010.89
2019-04-22T11:45:46.977Z,1010.78
2019-04-22T11:46:45.541Z,1010.72
2019-04-22T11:47:45.621Z,1010.78
2019-04-22T11:48:45.710Z,1010.83
2019-04-22T11:49:45.883Z,1010.75
2019-04-22T11:50:46.167Z,1010.76
2019-04-22T11:51:45.777Z,1010.75
2019-04-22T11:52:46.791Z,1010.74
2019-04-22T11:53:46.862Z,1010.79
2019-04-22T11:54:46.694Z,1010.74
2019-04-22T11:55:46.726Z,1010.72
2019-04-22T11:56:45.432Z,1010.70
2019-04-22T11:57:45.424Z,1010.64
2019-04-22T11:58:46.876Z,1010.62
2019-04-22T11:59:46.860Z,1010.56
2019-04-22T12:00:45.388Z,1010.69
2019-04-22T12:01:46.653Z,1010.63
2019-04-22T12:02:46.786Z,1010.57
2019-04-22T12:03:46.292Z,1010.59
2019-04-22T12:04:45.598Z,1010.54
2019-04-22T12:05:45.960Z,1010.58
2019-04-22T12:06:46.176Z,1010.59
2019-04-22T12:07:46.949Z,1010.58
2019-04-22T12:08:45.888Z,1010.52
2019-04-22T12:09:45.846Z,1010.54
2019-04-22T12:10:51.687Z,1010.57
2019-04-22T12:11:46.893Z,1010.67
2019-04-22T12:12:47.885Z,1010.61
2019-04-22T12:13:46.360Z,1010.52
2019-04-22T12:14:45.873Z,1010.53
2019-04-22T12:15:45.230Z,1010.55
2019-04-22T12:16:45.522Z,1010.48
2019-04-22T12:17:46.215Z,1010.47
2019-04-22T12:18:45.193Z,1010.52
2019-04-22T12:19:46.361Z,1010.52
2019-04-22T12:20:45.454Z,1010.57
2019-04-22T12:21:45.164Z,1010.62
2019-04-22T12:22:45.153Z,1010.75
2019-04-22T12:23:45.279Z,1010.58
2019-04-22T12:24:46.076Z,1010.75
2019-04-22T12:25:53.573Z,1010.57
2019-04-22T12:26:46.433Z,1010.57
2019-04-22T12:27:45.418Z,1010.54
2019-04-22T12:28:45.100Z,1010.62
2019-04-22T12:29:45.082Z,1010.53
2019-04-22T12:30:45.747Z,1010.46
2019-04-22T12:31:45.259Z,1010.40
2019-04-22T12:32:45.576Z,1010.62
2019-04-22T12:33:45.400Z,1010.49
2019-04-22T12:34:45.025Z,1010.51
2019-04-22T12:35:46.320Z,1010.39
2019-04-22T12:36:45.005Z,1010.42
2019-04-22T12:37:51.637Z,1010.44
2019-04-22T12:38:47.387Z,1010.26
2019-04-22T12:39:45.377Z,1010.33
2019-04-22T12:40:51.210Z,1010.28
2019-04-22T12:41:46.362Z,1010.27
2019-04-22T12:42:45.084Z,1010.35
2019-04-22T12:43:45.157Z,1010.41
2019-04-22T12:44:45.799Z,1010.23
2019-04-22T12:45:44.913Z,1010.20
2019-04-22T12:46:46.189Z,1010.19
2019-04-22T12:47:46.190Z,1010.18
2019-04-22T12:48:45.197Z,1010.22
2019-04-22T12:49:46.944Z,1010.19
2019-04-22T12:50:48.035Z,1010.18
2019-04-22T12:51:45.400Z,1010.15
2019-04-22T12:52:51.517Z,1010.11
2019-04-22T12:53:46.257Z,1010.07
2019-04-22T12:54:44.814Z,1010.07
2019-04-22T12:55:45.999Z,1009.96
2019-04-22T12:56:45.959Z,1009.99
2019-04-22T12:57:46.256Z,1009.97
2019-04-22T12:58:45.776Z,1010.07
2019-04-22T12:59:45.724Z,1009.91
2019-04-22T13:00:44.971Z,1009.98
2019-04-22T13:01:44.792Z,1009.97
2019-04-22T13:02:45.071Z,1009.92
2019-04-22T13:03:44.797Z,1010.03
2019-04-22T13:04:45.917Z,1009.93
2019-04-22T13:05:45.131Z,1010.01
2019-04-22T13:06:45.960Z,1010.00
2019-04-22T13:07:44.682Z,1009.95
2019-04-22T13:08:45.754Z,1009.85
2019-04-22T13:09:45.392Z,1009.91
2019-04-22T13:10:53.312Z,1009.88
2019-04-22T13:11:45.953Z,1009.82
2019-04-22T13:12:44.852Z,1009.83
2019-04-22T13:13:45.119Z,1009.88
2019-04-22T13:14:45.487Z,1009.81
2019-04-22T13:15:44.665Z,1009.80
2019-04-22T13:16:44.947Z,1009.74
2019-04-22T13:17:46.110Z,1009.88
2019-04-22T13:18:53.112Z,1009.77
2019-04-22T13:19:45.552Z,1009.69
2019-04-22T13:20:44.542Z,1009.64
2019-04-22T13:21:44.865Z,1009.65
2019-04-22T13:22:45.044Z,1009.53
2019-04-22T13:23:44.637Z,1009.61
2019-04-22T13:24:45.790Z,1009.57
2019-04-22T13:25:44.929Z,1009.57
2019-04-22T13:26:45.242Z,1009.57
2019-04-22T13:27:44.868Z,1009.64